Time;durP1;ratioP1;P1;durP2;ratioP2;P2;SDS_P1;SDS_P2;PMS_P1;PMS_P2;Temp;Humidity;BMP_temperature;BMP_pressure;BME280_temperature;BME280_humidity;BME280_pressure;Samples;Min_cycle;Max_cycle;Signal;HPM_P1;HPM_P2
2024/04/13 00:00:26;;;;;;;3.60;2.30;;;;;;;12.72;66.63;100375.77;105354;1254;70614;-72
2024/04/13 00:02:54;;;;;;;4.30;2.30;;;;;;;12.72;66.74;100374.87;105788;1254;71369;-73
2024/04/13 00:05:21;;;;;;;4.00;2.60;;;;;;;12.70;66.71;100375.45;105423;1258;61321;-69
2024/04/13 00:07:48;;;;;;;4.20;2.60;;;;;;;12.67;66.84;100368.68;105459;1256;61241;-72
2024/04/13 00:10:16;;;;;;;2.70;2.10;;;;;;;12.74;66.71;100367.70;105739;1261;74153;-70
2024/04/13 00:12:43;;;;;;;4.20;2.30;;;;;;;12.86;66.62;100368.08;105829;1254;70112;-72
2024/04/13 00:15:10;;;;;;;2.80;2.10;;;;;;;12.89;66.37;100366.70;106213;1259;71420;-72
2024/04/13 00:17:37;;;;;;;6.30;2.70;;;;;;;12.89;66.36;100361.90;105121;1260;61295;-71
2024/04/13 00:20:05;;;;;;;5.70;2.80;;;;;;;12.90;66.35;100359.88;105075;1260;61116;-71
2024/04/13 00:22:32;;;;;;;3.30;2.30;;;;;;;12.88;66.36;100356.47;105943;1261;74633;-73
2024/04/13 00:25:00;;;;;;;3.80;2.20;;;;;;;12.87;66.28;100358.05;106067;1267;69012;-72
2024/04/13 00:27:27;;;;;;;6.20;2.50;;;;;;;12.87;66.12;100355.38;106008;1260;71598;-71
2024/04/13 00:29:55;;;;;;;5.20;2.70;;;;;;;12.89;66.11;100355.48;105149;1260;62627;-72
2024/04/13 00:32:22;;;;;;;4.10;2.60;;;;;;;12.92;65.95;100352.27;106209;1254;61426;-71
2024/04/13 00:34:49;;;;;;;4.40;2.40;;;;;;;12.94;65.87;100348.14;105180;1254;74618;-73
2024/04/13 00:37:18;;;;;;;2.90;2.10;;;;;;;12.96;65.74;100350.43;105479;1254;69001;-73
2024/04/13 00:39:45;;;;;;;3.70;2.10;;;;;;;12.97;65.46;100350.51;106185;1257;71638;-70
2024/04/13 00:42:14;;;;;;;5.10;2.00;;;;;;;12.98;65.33;100353.20;105189;1254;61250;-74
2024/04/13 00:44:42;;;;;;;4.40;1.80;;;;;;;12.99;65.06;100347.42;105370;1260;61305;-74
2024/04/13 00:47:10;;;;;;;4.30;2.30;;;;;;;13.00;65.03;100348.96;105321;1260;74644;-74
2024/04/13 00:49:37;;;;;;;3.40;2.40;;;;;;;13.00;64.95;100344.51;105982;1254;69794;-72
2024/04/13 00:52:11;;;;;;;4.80;2.20;;;;;;;13.01;64.87;100346.57;105318;1259;71423;-73
2024/04/13 00:54:39;;;;;;;5.80;2.50;;;;;;;13.01;65.00;100346.20;105639;1261;61220;-72
2024/04/13 00:57:08;;;;;;;6.20;2.70;;;;;;;12.99;64.84;100343.33;105735;1254;63189;-72
2024/04/13 00:59:36;;;;;;;2.10;1.90;;;;;;;12.97;64.78;100341.29;105432;1260;74629;-72
2024/04/13 01:02:10;;;;;;;5.50;2.50;;;;;;;12.92;64.94;100336.63;105669;1260;68875;-74
2024/04/13 01:04:38;;;;;;;3.00;2.60;;;;;;;12.88;65.02;100332.44;105871;1255;72666;-74
2024/04/13 01:07:05;;;;;;;2.90;2.00;;;;;;;12.86;65.25;100329.34;105752;1260;61322;-73
2024/04/13 01:09:33;;;;;;;3.30;2.30;;;;;;;12.84;65.23;100328.45;105445;1254;61135;-72
2024/04/13 01:12:00;;;;;;;3.50;2.10;;;;;;;12.82;65.33;100327.16;105726;1259;74168;-72
2024/04/13 01:14:28;;;;;;;2.10;1.90;;;;;;;12.79;65.39;100323.55;105330;1262;69132;-71
2024/04/13 01:16:56;;;;;;;4.40;1.90;;;;;;;12.76;65.55;100327.92;105323;1254;71482;-70
2024/04/13 01:19:23;;;;;;;3.80;2.00;;;;;;;12.74;65.60;100324.05;105330;1254;61609;-74
2024/04/13 01:21:50;;;;;;;5.00;2.60;;;;;;;12.72;65.71;100324.10;106117;1254;61416;-74
2024/04/13 01:24:18;;;;;;;4.20;2.30;;;;;;;12.71;65.69;100326.66;106119;1256;73582;-72
2024/04/13 01:26:45;;;;;;;3.70;2.40;;;;;;;12.72;65.76;100325.70;105252;1254;72093;-73
2024/04/13 01:29:12;;;;;;;3.40;2.20;;;;;;;12.71;65.77;100324.36;105175;1270;72650;-71
2024/04/13 01:31:40;;;;;;;3.00;2.30;;;;;;;12.70;65.82;100320.23;105428;1255;61243;-73
2024/04/13 01:34:07;;;;;;;6.70;2.80;;;;;;;12.70;65.77;100321.83;105202;1261;61162;-71
2024/04/13 01:36:36;;;;;;;3.80;2.30;;;;;;;12.69;65.81;100318.56;105230;1254;73599;-75
2024/04/13 01:39:13;;;;;;;4.20;2.10;;;;;;;12.69;65.92;100320.54;105812;1261;69018;-75
2024/04/13 01:41:52;;;;;;;4.10;2.20;;;;;;;12.70;65.83;100322.56;106043;1257;71477;-73
2024/04/13 01:44:19;;;;;;;3.70;2.20;;;;;;;12.70;65.93;100320.73;105905;1257;61297;-73
2024/04/13 01:46:46;;;;;;;2.70;2.20;;;;;;;12.69;65.99;100316.97;105488;1257;61313;-73
2024/04/13 01:49:14;;;;;;;5.00;2.20;;;;;;;12.68;65.93;100316.57;105854;1255;74743;-73
2024/04/13 01:51:41;;;;;;;4.20;2.40;;;;;;;12.69;65.96;100309.14;105759;1260;70122;-73
2024/04/13 01:54:09;;;;;;;2.70;1.70;;;;;;;12.68;66.07;100303.17;105817;1257;72425;-73
2024/04/13 01:56:37;;;;;;;2.60;2.00;;;;;;;12.67;65.97;100304.04;105695;1258;61247;-73
2024/04/13 01:59:05;;;;;;;2.60;2.10;;;;;;;12.65;66.06;100296.45;105985;1254;61336;-75
2024/04/13 02:01:33;;;;;;;3.70;2.30;;;;;;;12.63;66.19;100300.34;105815;1261;74627;-70
2024/04/13 02:04:01;;;;;;;5.30;1.90;;;;;;;12.61;66.34;100293.48;105963;1254;70189;-74
2024/04/13 02:06:28;;;;;;;2.50;1.80;;;;;;;12.62;66.30;100294.41;105738;1254;71048;-72
2024/04/13 02:08:56;;;;;;;3.80;2.00;;;;;;;12.71;66.19;100291.48;105478;1260;61211;-75
2024/04/13 02:11:23;;;;;;;2.90;2.00;;;;;;;12.78;66.02;100294.76;105408;1260;62874;-76
2024/04/13 02:13:50;;;;;;;3.70;2.50;;;;;;;12.79;65.90;100288.36;105945;1254;74662;-74
2024/04/13 02:16:18;;;;;;;4.50;2.20;;;;;;;12.79;65.86;100291.09;105832;1259;69175;-73
2024/04/13 02:18:45;;;;;;;4.80;2.60;;;;;;;12.78;65.91;100289.33;105234;1254;71479;-74
2024/04/13 02:21:12;;;;;;;4.40;2.60;;;;;;;12.77;65.89;100289.07;106153;1258;60430;-73
2024/04/13 02:23:40;;;;;;;4.10;2.50;;;;;;;12.76;65.87;100288.30;105269;1254;184223;-71
2024/04/13 02:28:23;;;;;;;2.70;2.20;;;;;;;12.73;66.07;100286.31;103150;1291;600575;-74
2024/04/13 02:30:50;;;;;;;3.20;2.60;;;;;;;12.70;66.03;100281.84;105974;1262;61515;-74
2024/04/13 02:33:17;;;;;;;4.00;2.50;;;;;;;12.67;66.12;100282.52;106034;1261;59614;-74
2024/04/13 02:35:45;;;;;;;2.70;2.00;;;;;;;12.66;66.18;100284.20;106143;1256;73070;-75
2024/04/13 02:38:14;;;;;;;3.60;2.60;;;;;;;12.66;66.23;100282.69;105964;1253;70353;-75
2024/04/13 02:40:41;;;;;;;5.90;2.60;;;;;;;12.62;66.27;100281.19;105794;1254;72645;-71
2024/04/13 02:43:08;;;;;;;3.30;2.20;;;;;;;12.61;66.35;100284.45;105337;1256;187946;-73
2024/04/13 02:45:36;;;;;;;4.30;2.30;;;;;;;12.59;66.38;100284.63;105473;1251;59767;-74
2024/04/13 02:48:04;;;;;;;5.80;2.40;;;;;;;12.57;66.45;100281.52;105592;1253;72094;-73
2024/04/13 02:50:31;;;;;;;4.50;2.40;;;;;;;12.55;66.39;100281.85;105841;1260;68717;-73
2024/04/13 02:52:59;;;;;;;3.40;2.70;;;;;;;12.53;66.39;100284.25;106063;1256;73682;-75
2024/04/13 02:55:26;;;;;;;2.60;2.40;;;;;;;12.53;66.41;100283.55;105494;1253;60506;-74
2024/04/13 02:57:53;;;;;;;4.40;2.80;;;;;;;12.52;66.51;100284.49;106057;1256;60420;-72
2024/04/13 03:00:21;;;;;;;3.20;2.60;;;;;;;12.50;66.47;100286.83;106330;1251;74760;-74
2024/04/13 03:02:48;;;;;;;3.90;2.60;;;;;;;12.49;66.56;100285.22;106909;1251;68869;-74
2024/04/13 03:05:16;;;;;;;3.60;1.80;;;;;;;12.48;66.68;100283.17;107044;1251;72862;-74
2024/04/13 03:07:44;;;;;;;4.10;2.30;;;;;;;12.58;66.59;100283.32;106263;1254;60525;-73
2024/04/13 03:10:11;;;;;;;3.70;2.30;;;;;;;12.67;66.40;100282.69;106292;1258;59217;-70
2024/04/13 03:12:38;;;;;;;3.90;2.50;;;;;;;12.68;66.43;100281.42;106288;1257;74062;-74
2024/04/13 03:15:07;;;;;;;3.80;2.60;;;;;;;12.66;66.40;100279.95;106630;1253;70156;-73
2024/04/13 03:17:35;;;;;;;3.60;2.90;;;;;;;12.62;66.39;100277.59;106323;1258;71497;-72
2024/04/13 03:20:05;;;;;;;4.40;2.40;;;;;;;12.58;66.50;100277.43;106951;1251;60468;-73
2024/04/13 03:22:33;;;;;;;3.70;2.60;;;;;;;12.55;66.58;100277.63;107541;1251;59116;-70
2024/04/13 03:25:00;;;;;;;4.00;2.70;;;;;;;12.54;66.73;100275.56;107646;1250;73889;-71
2024/04/13 03:27:28;;;;;;;4.60;2.40;;;;;;;12.53;66.75;100274.76;106888;1253;70115;-72
2024/04/13 03:29:56;;;;;;;3.90;2.40;;;;;;;12.52;66.85;100274.25;106746;1258;72579;-73
2024/04/13 03:32:23;;;;;;;4.30;2.40;;;;;;;12.52;66.73;100271.60;106489;1253;60537;-70
2024/04/13 03:34:50;;;;;;;3.00;2.60;;;;;;;12.51;66.75;100274.20;106526;1253;60293;-73
2024/04/13 03:37:17;;;;;;;4.90;2.80;;;;;;;12.50;66.88;100273.56;107126;1252;73623;-72
2024/04/13 03:39:45;;;;;;;4.90;2.50;;;;;;;12.49;66.90;100275.84;107379;1257;68713;-73
2024/04/13 03:42:13;;;;;;;3.40;2.50;;;;;;;12.47;67.08;100275.36;106910;1257;70603;-70
2024/04/13 03:44:40;;;;;;;6.70;2.70;;;;;;;12.45;67.14;100272.98;106805;1257;60444;-72
2024/04/13 03:47:08;;;;;;;4.30;2.60;;;;;;;12.51;66.97;100277.86;107009;1253;60284;-72
2024/04/13 03:49:35;;;;;;;4.60;2.20;;;;;;;12.64;66.98;100273.83;106914;1253;72944;-72
2024/04/13 03:52:03;;;;;;;5.00;2.50;;;;;;;12.67;66.73;100276.08;106783;1253;69638;-71
2024/04/13 03:54:30;;;;;;;3.70;2.30;;;;;;;12.69;66.68;100276.44;106732;1257;74148;-70
2024/04/13 03:56:58;;;;;;;4.20;2.50;;;;;;;12.72;66.66;100275.78;106210;1260;60381;-71
2024/04/13 03:59:25;;;;;;;4.80;2.20;;;;;;;12.74;66.62;100280.14;107052;1253;60274;-70
2024/04/13 04:01:52;;;;;;;7.00;2.70;;;;;;;12.76;66.42;100275.50;106794;1253;72219;-72
2024/04/13 04:04:20;;;;;;;3.20;2.40;;;;;;;12.77;66.39;100278.90;106631;1257;68976;-75
2024/04/13 04:06:47;;;;;;;3.20;2.70;;;;;;;12.79;66.25;100274.75;106988;1255;71899;-74
2024/04/13 04:09:15;;;;;;;3.70;2.80;;;;;;;12.82;66.07;100274.73;106435;1259;59041;-72
2024/04/13 04:11:43;;;;;;;4.90;2.50;;;;;;;12.82;66.14;100274.13;106212;1253;60556;-71
2024/04/13 04:14:10;;;;;;;3.80;2.90;;;;;;;12.82;66.09;100273.60;106577;1256;73831;-72
2024/04/13 04:16:38;;;;;;;3.80;2.70;;;;;;;12.82;66.07;100275.19;106484;1259;69224;-73
2024/04/13 04:19:05;;;;;;;8.50;3.80;;;;;;;12.83;65.97;100275.63;106582;1253;71461;-74
2024/04/13 04:21:32;;;;;;;3.60;2.80;;;;;;;12.87;66.03;100277.77;108917;1252;61045;-73
2024/04/13 04:23:59;;;;;;;5.80;2.90;;;;;;;12.90;66.00;100277.74;108949;1252;59088;-72
2024/04/13 04:26:27;;;;;;;7.10;3.10;;;;;;;12.92;65.85;100279.30;109127;1252;72898;-73
2024/04/13 04:28:54;;;;;;;5.10;2.90;;;;;;;12.93;65.88;100275.80;108984;1252;69066;-73
2024/04/13 04:31:22;;;;;;;5.10;2.60;;;;;;;12.94;65.82;100280.80;108963;1253;71559;-72
2024/04/13 04:33:53;;;;;;;5.60;3.00;;;;;;;12.96;65.73;100277.75;108960;1253;58746;-74
2024/04/13 04:36:20;;;;;;;3.90;2.50;;;;;;;12.99;65.74;100282.06;109038;1253;59610;-72
2024/04/13 04:38:49;;;;;;;4.70;2.30;;;;;;;13.02;65.63;100280.61;108984;1253;72561;-73
2024/04/13 04:41:19;;;;;;;3.40;2.90;;;;;;;13.04;65.57;100284.34;108931;1253;68921;-73
2024/04/13 04:43:46;;;;;;;4.80;2.70;;;;;;;13.03;65.56;100285.98;108774;1253;71390;-73
2024/04/13 04:46:14;;;;;;;5.80;2.80;;;;;;;13.08;65.36;100285.10;108880;1252;61249;-73
2024/04/13 04:48:41;;;;;;;3.60;2.60;;;;;;;13.11;65.25;100283.89;108764;1253;61028;-72
2024/04/13 04:51:09;;;;;;;3.30;2.60;;;;;;;13.14;65.21;100288.35;108811;1253;72676;-75
2024/04/13 04:53:36;;;;;;;3.80;2.60;;;;;;;13.16;65.08;100284.77;108975;1253;68110;-75
2024/04/13 04:56:04;;;;;;;5.80;2.50;;;;;;;13.19;64.96;100283.86;109032;1251;72507;-75
2024/04/13 04:58:31;;;;;;;6.50;2.60;;;;;;;13.22;64.88;100281.33;109288;1252;61570;-74
2024/04/13 05:00:58;;;;;;;3.90;2.80;;;;;;;13.25;64.80;100280.91;108822;1252;58854;-74
2024/04/13 05:03:26;;;;;;;5.10;2.60;;;;;;;13.28;64.69;100281.27;109288;1252;72551;-74
2024/04/13 05:05:53;;;;;;;4.10;2.60;;;;;;;13.30;64.60;100278.06;109072;1253;69037;-74
2024/04/13 05:08:21;;;;;;;4.90;3.00;;;;;;;13.33;64.47;100275.89;109165;1252;71166;-73
2024/04/13 05:10:48;;;;;;;5.90;2.50;;;;;;;13.36;64.29;100270.95;109041;1253;59037;-74
2024/04/13 05:13:15;;;;;;;5.00;2.90;;;;;;;13.40;64.32;100266.81;109122;1253;58961;-73
2024/04/13 05:15:43;;;;;;;5.30;3.00;;;;;;;13.45;64.37;100264.28;108649;1253;72702;-73
2024/04/13 05:18:11;;;;;;;6.60;3.00;;;;;;;13.52;64.07;100262.24;108964;1252;69227;-73
2024/04/13 05:20:38;;;;;;;4.10;2.90;;;;;;;13.58;63.81;100254.96;108922;1253;72198;-73
2024/04/13 05:23:06;;;;;;;6.00;3.30;;;;;;;13.65;63.59;100252.46;108683;1257;59821;-74
2024/04/13 05:25:33;;;;;;;4.30;3.30;;;;;;;13.73;63.36;100252.02;108896;1256;59458;-75
2024/04/13 05:28:00;;;;;;;3.60;2.60;;;;;;;13.81;62.99;100248.27;108764;1253;72558;-73
2024/04/13 05:30:27;;;;;;;5.50;3.10;;;;;;;13.89;62.63;100252.73;108082;1259;68856;-73
2024/04/13 05:32:55;;;;;;;3.40;2.90;;;;;;;13.93;62.34;100248.66;107464;1258;71438;-72
2024/04/13 05:35:22;;;;;;;5.30;2.60;;;;;;;13.97;62.41;100249.30;108700;1252;61119;-74
2024/04/13 05:37:50;;;;;;;4.40;3.10;;;;;;;14.01;62.28;100244.02;108907;1253;59112;-73
2024/04/13 05:40:17;;;;;;;3.40;2.70;;;;;;;14.10;61.68;100241.36;108053;1255;72170;-76
2024/04/13 05:42:45;;;;;;;3.20;2.60;;;;;;;14.17;61.44;100239.48;107827;1253;69006;-76
2024/04/13 05:45:12;;;;;;;6.00;2.90;;;;;;;14.23;61.31;100235.61;107589;1253;71602;-76
2024/04/13 05:47:40;;;;;;;5.80;2.80;;;;;;;14.30;61.12;100235.60;107011;1256;60474;-74
2024/04/13 05:50:07;;;;;;;6.80;3.00;;;;;;;14.41;60.90;100230.36;106776;1258;60857;-77
2024/04/13 05:52:34;;;;;;;3.80;2.50;;;;;;;14.52;60.67;100230.16;106771;1252;72813;-73
2024/04/13 05:55:02;;;;;;;5.30;3.00;;;;;;;14.61;60.18;100233.42;106295;1253;69711;-74
2024/04/13 05:57:30;;;;;;;4.50;3.00;;;;;;;14.71;59.68;100229.90;105805;1252;72664;-76
2024/04/13 05:59:57;;;;;;;3.90;2.60;;;;;;;14.82;59.30;100232.61;106214;1253;60508;-78
2024/04/13 06:02:26;;;;;;;4.00;2.60;;;;;;;14.91;58.86;100227.58;106620;1253;60282;-76
2024/04/13 06:04:54;;;;;;;4.00;2.80;;;;;;;14.99;58.57;100228.07;106410;1253;72481;-77
2024/04/13 06:07:22;;;;;;;3.90;2.40;;;;;;;15.05;58.28;100226.51;106661;1259;69073;-77
2024/04/13 06:09:49;;;;;;;4.00;2.90;;;;;;;15.13;57.71;100227.23;107248;1253;72669;-76
2024/04/13 06:12:17;;;;;;;6.70;3.00;;;;;;;15.13;57.53;100231.07;107731;1253;61283;-75
2024/04/13 06:14:48;;;;;;;4.70;2.80;;;;;;;15.08;57.52;100229.42;107328;1260;60905;-76
2024/04/13 06:17:16;;;;;;;5.50;3.30;;;;;;;15.06;57.58;100230.96;106898;1253;72835;-76
2024/04/13 06:19:44;;;;;;;4.00;2.80;;;;;;;15.08;57.61;100233.86;106720;1253;70591;-80
2024/04/13 06:22:12;;;;;;;5.00;3.00;;;;;;;15.12;57.54;100229.98;106411;1253;71408;-79
2024/04/13 06:24:40;;;;;;;7.20;3.00;;;;;;;15.16;57.54;100231.14;106414;1253;62139;-77
2024/04/13 06:27:09;;;;;;;5.30;2.90;;;;;;;15.21;57.23;100229.02;106493;1253;61197;-78
2024/04/13 06:29:37;;;;;;;3.70;2.50;;;;;;;15.28;57.07;100227.30;106391;1252;72818;-77
2024/04/13 06:32:05;;;;;;;3.60;2.40;;;;;;;15.38;56.46;100227.02;106663;1255;69276;-79
2024/04/13 06:34:32;;;;;;;4.00;3.00;;;;;;;15.48;55.36;100225.77;106439;1254;72983;-79
2024/04/13 06:37:00;;;;;;;4.60;2.60;;;;;;;15.58;54.73;100222.16;106655;1255;62046;-78
2024/04/13 06:39:27;;;;;;;5.80;3.00;;;;;;;15.63;54.37;100219.84;106781;1253;61186;-79
2024/04/13 06:41:54;;;;;;;4.20;2.30;;;;;;;15.71;53.78;100218.40;107025;1253;73378;-78
2024/04/13 06:44:22;;;;;;;4.60;2.50;;;;;;;15.75;53.36;100214.67;107205;1253;70950;-80
2024/04/13 06:46:53;;;;;;;6.20;2.80;;;;;;;15.78;53.26;100212.23;108731;1253;71733;-80
2024/04/13 06:49:37;;;;;;;3.10;2.40;;;;;;;15.83;53.30;100208.63;108916;1252;62163;-82
2024/04/13 06:52:04;;;;;;;3.80;2.60;;;;;;;15.90;52.95;100204.61;108824;1253;61120;-77
2024/04/13 06:54:32;;;;;;;4.70;2.60;;;;;;;15.95;52.53;100202.23;108361;1252;73144;-80
2024/04/13 06:57:00;;;;;;;3.10;2.30;;;;;;;15.98;52.24;100198.25;107994;1253;69902;-80
2024/04/13 06:59:27;;;;;;;4.70;2.40;;;;;;;16.05;51.95;100195.05;107471;1256;73130;-79
2024/04/13 07:01:55;;;;;;;4.50;2.40;;;;;;;16.18;51.41;100196.85;106513;1260;61256;-81
2024/04/13 07:04:22;;;;;;;3.50;2.50;;;;;;;16.30;51.54;100193.29;106760;1259;61112;-81
2024/04/13 07:06:50;;;;;;;6.20;2.20;;;;;;;16.45;51.14;100191.78;107161;1258;72932;-81
2024/04/13 07:09:20;;;;;;;4.00;2.20;;;;;;;16.63;50.41;100190.90;107309;1259;69012;-81
2024/04/13 07:11:48;;;;;;;5.70;2.10;;;;;;;16.79;49.44;100192.02;106689;1254;71405;-80
2024/04/13 07:14:16;;;;;;;3.50;2.20;;;;;;;16.86;48.90;100187.04;106687;1253;61286;-82
2024/04/13 07:16:44;;;;;;;5.20;2.20;;;;;;;16.91;49.10;100181.52;107194;1253;61273;-82
2024/04/13 07:19:12;;;;;;;3.90;2.40;;;;;;;16.99;49.31;100174.71;107116;1253;73609;-81
2024/04/13 07:21:39;;;;;;;2.50;1.90;;;;;;;17.21;49.49;100179.42;106665;1253;70857;-82
2024/04/13 07:24:07;;;;;;;3.90;2.00;;;;;;;17.44;47.88;100178.64;106195;1253;74824;-81
2024/04/13 07:26:34;;;;;;;4.10;1.90;;;;;;;17.57;47.16;100177.71;106345;1256;61196;-82
2024/04/13 07:29:01;;;;;;;2.80;1.90;;;;;;;17.67;47.17;100176.90;106349;1256;61250;-80
2024/04/13 07:31:29;;;;;;;4.00;2.10;;;;;;;17.83;46.80;100175.98;106304;1259;74016;-80
2024/04/13 07:33:56;;;;;;;3.70;1.90;;;;;;;17.99;46.09;100172.67;106074;1258;69597;-81
2024/04/13 07:36:23;;;;;;;2.70;1.70;;;;;;;18.15;45.69;100173.05;106124;1253;72929;-82
2024/04/13 07:38:51;;;;;;;3.10;1.80;;;;;;;18.27;45.04;100176.17;106063;1253;61732;-82
2024/04/13 07:41:18;;;;;;;4.40;2.00;;;;;;;18.34;44.89;100174.29;106301;1254;61141;-81
2024/04/13 07:43:46;;;;;;;4.90;1.60;;;;;;;18.39;44.42;100167.60;108776;1251;76999;-81
2024/04/13 07:46:13;;;;;;;3.20;1.90;;;;;;;18.37;44.35;100168.32;108574;1253;68798;-80
2024/04/13 07:48:40;;;;;;;3.30;1.90;;;;;;;18.27;44.51;100169.77;106544;1251;71379;-80
2024/04/13 07:51:08;;;;;;;2.80;1.80;;;;;;;18.13;44.57;100168.58;106629;1253;61179;-80
2024/04/13 07:53:35;;;;;;;2.90;1.90;;;;;;;18.01;44.83;100167.59;106241;1258;61298;-79
2024/04/13 07:56:03;;;;;;;6.10;2.30;;;;;;;17.94;44.90;100165.48;106013;1258;75330;-79
2024/04/13 07:58:30;;;;;;;2.90;1.90;;;;;;;17.78;45.23;100165.93;106047;1257;69073;-80
2024/04/13 08:00:58;;;;;;;5.70;2.30;;;;;;;17.61;45.76;100159.84;106100;1254;72259;-81
2024/04/13 08:03:25;;;;;;;3.00;1.80;;;;;;;17.50;46.15;100160.29;106195;1256;61184;-81
2024/04/13 08:05:53;;;;;;;5.30;2.20;;;;;;;17.47;46.28;100158.14;106208;1259;61143;-80
2024/04/13 08:08:20;;;;;;;5.40;2.30;;;;;;;17.53;46.62;100154.02;106277;1253;73678;-80
2024/04/13 08:10:47;;;;;;;4.00;1.80;;;;;;;17.70;46.56;100157.48;106388;1257;70597;-80
2024/04/13 08:13:15;;;;;;;2.30;1.90;;;;;;;17.87;45.85;100150.95;106847;1259;75190;-80
2024/04/13 08:15:43;;;;;;;5.40;2.30;;;;;;;17.91;45.38;100154.98;107798;1253;61896;-79
2024/04/13 08:18:10;;;;;;;3.80;2.00;;;;;;;17.95;45.82;100151.01;106823;1253;61296;-80
2024/04/13 08:20:37;;;;;;;2.00;1.90;;;;;;;18.11;45.74;100149.31;107261;1258;76869;-81
2024/04/13 08:23:05;;;;;;;5.90;1.80;;;;;;;18.27;45.40;100147.40;106374;1254;72457;-80
2024/04/13 08:25:33;;;;;;;4.40;2.30;;;;;;;18.33;45.47;100146.61;106936;1253;74827;-80
2024/04/13 08:28:00;;;;;;;4.50;2.10;;;;;;;18.34;45.64;100140.77;107725;1253;61230;-81
2024/04/13 08:30:28;;;;;;;3.40;2.40;;;;;;;18.33;45.79;100134.35;107357;1258;61172;-82
2024/04/13 08:32:56;;;;;;;6.10;2.10;;;;;;;18.39;45.70;100137.05;107385;1256;73988;-82
2024/04/13 08:35:26;;;;;;;6.50;2.30;;;;;;;18.48;45.23;100136.31;107220;1251;70060;-81
2024/04/13 08:37:54;;;;;;;4.30;2.10;;;;;;;18.61;45.33;100140.42;108822;1256;73604;-78
2024/04/13 08:40:21;;;;;;;5.20;2.20;;;;;;;18.77;44.91;100132.05;108376;1253;61321;-82
2024/04/13 08:42:52;;;;;;;4.30;2.30;;;;;;;18.92;44.99;100123.90;108436;1256;61436;-83
2024/04/13 08:45:22;;;;;;;6.10;2.60;;;;;;;19.11;44.44;100128.30;106821;1252;75755;-80
2024/04/13 08:47:51;;;;;;;5.80;2.20;;;;;;;19.25;44.26;100117.95;106852;1258;71573;-80
2024/04/13 08:50:18;;;;;;;2.70;1.80;;;;;;;19.38;43.99;100115.71;107049;1254;74793;-83
2024/04/13 08:52:46;;;;;;;8.00;2.50;;;;;;;19.58;43.99;100111.64;106159;1254;61202;-81
2024/04/13 08:55:13;;;;;;;2.90;1.80;;;;;;;19.82;43.39;100105.98;106395;1253;60411;-82
2024/04/13 08:57:41;;;;;;;3.20;2.20;;;;;;;20.00;43.07;100105.75;106571;1253;76751;-82
2024/04/13 09:00:14;;;;;;;3.20;2.30;;;;;;;20.26;42.76;100110.94;106716;1251;68789;-79
2024/04/13 09:02:43;;;;;;;3.70;2.50;;;;;;;20.52;42.26;100112.20;106249;1256;75514;-80
2024/04/13 09:05:12;;;;;;;3.70;2.10;;;;;;;20.68;41.79;100100.27;106113;1253;61308;-82
2024/04/13 09:07:39;;;;;;;2.20;1.80;;;;;;;20.74;41.88;100099.44;106289;1256;61102;-82
2024/04/13 09:10:09;;;;;;;5.90;2.00;;;;;;;20.83;41.64;100104.44;106261;1253;75863;-81
2024/04/13 09:12:37;;;;;;;6.50;2.80;;;;;;;20.76;41.52;100094.80;106064;1260;73098;-80
2024/04/13 09:15:05;;;;;;;2.80;2.00;;;;;;;20.65;41.76;100095.98;106253;1254;73826;-81
2024/04/13 09:17:33;;;;;;;4.50;2.20;;;;;;;20.58;41.99;100094.61;106159;1253;62079;-81
2024/04/13 09:20:07;;;;;;;2.90;2.10;;;;;;;20.64;41.88;100087.64;106250;1254;61200;-80
2024/04/13 09:22:36;;;;;;;3.50;2.10;;;;;;;20.58;41.78;100082.70;106368;1256;75670;-80
2024/04/13 09:25:03;;;;;;;8.00;2.60;;;;;;;20.36;42.31;100089.00;106409;1256;69945;-81
2024/04/13 09:27:33;;;;;;;6.10;2.60;;;;;;;20.26;42.64;100085.71;106504;1253;74151;-81
2024/04/13 09:30:08;;;;;;;3.60;1.90;;;;;;;20.25;42.59;100083.10;106524;1253;64850;-81
2024/04/13 09:32:36;;;;;;;2.10;1.90;;;;;;;20.28;42.75;100081.20;106608;1251;63508;-81
2024/04/13 09:35:11;;;;;;;2.60;2.10;;;;;;;20.43;42.68;100071.28;108315;1252;76088;-77
2024/04/13 09:37:39;;;;;;;4.90;2.30;;;;;;;20.96;42.27;100064.35;108038;1253;72389;-79
2024/04/13 09:40:10;;;;;;;4.50;2.30;;;;;;;21.71;41.27;100054.50;107353;1251;72517;-81
2024/04/13 09:42:38;;;;;;;3.30;2.20;;;;;;;22.46;39.69;100050.83;106906;1256;62113;-79
2024/04/13 09:45:06;;;;;;;3.30;2.00;;;;;;;22.99;39.02;100050.48;106858;1251;61226;-81
2024/04/13 09:47:33;;;;;;;2.80;2.00;;;;;;;23.28;39.19;100036.05;107721;1260;75414;-77
2024/04/13 09:50:06;;;;;;;3.80;2.40;;;;;;;23.52;38.06;100037.27;106610;1251;72688;-81
2024/04/13 09:52:42;;;;;;;2.50;2.30;;;;;;;23.53;38.06;100031.32;106414;1262;74223;-80
2024/04/13 09:55:10;;;;;;;3.00;2.00;;;;;;;23.60;38.21;100024.42;106394;1255;61685;-81
2024/04/13 09:57:38;;;;;;;3.10;2.50;;;;;;;23.93;37.66;100024.73;106504;1257;62683;-80
2024/04/13 10:00:07;;;;;;;3.70;2.10;;;;;;;24.21;36.93;100028.05;106644;1254;77037;-83
2024/04/13 10:02:36;;;;;;;4.70;2.50;;;;;;;24.34;36.63;100025.06;107905;1259;70935;-83
2024/04/13 10:05:04;;;;;;;2.50;2.20;;;;;;;24.45;36.58;100018.70;106589;1250;75027;-79
2024/04/13 10:07:31;;;;;;;2.90;2.40;;;;;;;24.71;36.22;100014.39;106405;1261;62225;-82
2024/04/13 10:09:59;;;;;;;4.80;2.80;;;;;;;24.95;36.04;100012.81;106653;1254;61349;-79
2024/04/13 10:12:31;;;;;;;2.90;2.00;;;;;;;25.15;35.53;100007.98;106203;1263;76906;-81
2024/04/13 10:15:00;;;;;;;4.30;2.50;;;;;;;25.19;35.14;100007.75;107157;1259;71313;-79
2024/04/13 10:17:28;;;;;;;5.00;2.10;;;;;;;25.14;35.17;100001.84;107175;1256;73586;-82
2024/04/13 10:19:55;;;;;;;4.30;2.60;;;;;;;25.23;35.09;99999.49;106830;1254;62294;-81
2024/04/13 10:22:23;;;;;;;4.80;2.10;;;;;;;25.33;35.22;99987.77;106676;1252;61272;-81
2024/04/13 10:25:07;;;;;;;2.70;2.40;;;;;;;25.45;34.80;99990.70;106848;1256;77137;-82
2024/04/13 10:27:35;;;;;;;2.40;2.10;;;;;;;25.51;34.51;99994.39;106740;1260;73605;-79
2024/04/13 10:30:04;;;;;;;3.60;2.00;;;;;;;25.46;34.63;99987.17;107384;1256;74171;-78
2024/04/13 10:32:32;;;;;;;2.80;2.20;;;;;;;25.46;34.91;99982.16;108589;1251;61701;-79
2024/04/13 10:35:08;;;;;;;3.30;2.60;;;;;;;25.47;35.02;99981.80;107805;1256;61045;-77
2024/04/13 10:37:36;;;;;;;3.40;2.30;;;;;;;25.65;35.24;99979.52;106562;1253;75501;-81
2024/04/13 10:40:05;;;;;;;3.80;2.40;;;;;;;25.81;35.08;99977.99;106687;1258;71269;-79
2024/04/13 10:42:41;;;;;;;3.30;2.20;;;;;;;25.80;34.85;99973.03;106733;1251;74246;-79
2024/04/13 10:45:15;;;;;;;3.30;2.30;;;;;;;25.49;35.25;99969.73;106356;1257;61337;-78
2024/04/13 10:47:43;;;;;;;6.30;2.30;;;;;;;25.29;35.25;99968.02;106460;1257;61963;-81
2024/04/13 10:50:11;;;;;;;2.40;2.20;;;;;;;25.36;35.43;99968.23;106621;1255;76692;-77
2024/04/13 10:52:39;;;;;;;2.20;2.00;;;;;;;25.66;35.06;99968.55;106161;1257;72162;-78
2024/04/13 10:55:10;;;;;;;5.60;3.30;;;;;;;25.66;34.62;99964.19;106219;1256;74799;-81
2024/04/13 10:57:41;;;;;;;2.70;2.40;;;;;;;25.31;35.01;99956.86;106485;1254;62092;-79
2024/04/13 11:00:10;;;;;;;3.30;2.40;;;;;;;25.05;35.53;99950.71;106347;1256;61218;-80
2024/04/13 11:02:38;;;;;;;3.40;2.10;;;;;;;24.80;35.83;99952.02;106313;1258;75872;-79
2024/04/13 11:05:06;;;;;;;3.80;2.60;;;;;;;24.47;36.08;99953.44;106164;1256;70625;-79
2024/04/13 11:07:36;;;;;;;3.00;2.50;;;;;;;24.08;36.53;99948.80;106284;1259;75243;-80
2024/04/13 11:10:04;;;;;;;5.40;2.60;;;;;;;23.72;37.20;99945.52;106294;1254;61238;-78
2024/04/13 11:12:32;;;;;;;4.70;2.30;;;;;;;23.65;37.52;99940.02;106491;1252;62227;-77
2024/04/13 11:14:59;;;;;;;2.90;2.00;;;;;;;23.72;37.38;99932.40;106694;1257;75814;-75
2024/04/13 11:17:27;;;;;;;2.10;1.90;;;;;;;23.68;37.45;99932.08;107149;1251;71228;-78
2024/04/13 11:19:54;;;;;;;4.20;2.50;;;;;;;23.58;37.54;99930.30;108002;1251;73779;-79
2024/04/13 11:22:23;;;;;;;2.90;2.60;;;;;;;23.75;37.74;99923.45;106367;1253;60235;-77